Time;durP1;ratioP1;P1;durP2;ratioP2;P2;SDS_P1;SDS_P2;PMS_P1;PMS_P2;Temp;Humidity;BMP_temperature;BMP_pressure;BME280_temperature;BME280_humidity;BME280_pressure;Samples;Min_cycle;Max_cycle;Signal;HPM_P1;HPM_P2
2022/06/29 00:01:01;;;;;;;10.53;5.37;;;;;;;22.16;50.81;100547.69;123598;1099;104682;-77
2022/06/29 00:03:33;;;;;;;11.25;5.10;;;;;;;22.21;50.35;100551.18;123509;1099;104265;-77
2022/06/29 00:06:04;;;;;;;12.80;5.30;;;;;;;22.22;50.00;100547.62;123467;1099;104335;-76
2022/06/29 00:08:36;;;;;;;10.23;5.20;;;;;;;22.23;50.71;100543.14;123506;1099;104358;-76
2022/06/29 00:11:08;;;;;;;12.80;5.43;;;;;;;22.24;50.39;100545.80;123496;1099;104201;-76
2022/06/29 00:13:39;;;;;;;12.03;4.90;;;;;;;22.25;50.55;100552.02;123520;1099;104344;-76
2022/06/29 00:16:11;;;;;;;11.23;5.60;;;;;;;22.21;50.81;100550.30;123475;1099;104322;-76
2022/06/29 00:18:42;;;;;;;14.30;5.77;;;;;;;22.18;50.95;100555.69;123466;1099;104367;-77
2022/06/29 00:21:14;;;;;;;13.77;5.03;;;;;;;22.14;50.72;100560.16;123513;1099;104265;-76
2022/06/29 00:23:46;;;;;;;9.70;5.17;;;;;;;22.10;51.54;100562.91;123485;1099;104200;-77
2022/06/29 00:26:17;;;;;;;9.77;5.13;;;;;;;22.07;51.44;100563.81;123502;1099;104367;-76
2022/06/29 00:28:49;;;;;;;10.17;5.33;;;;;;;22.05;51.03;100571.84;123499;1099;104354;-77
2022/06/29 00:31:21;;;;;;;11.57;5.33;;;;;;;22.04;51.56;100567.39;123498;1099;104357;-76
2022/06/29 00:33:52;;;;;;;10.73;6.00;;;;;;;22.01;51.25;100556.73;123529;1098;104315;-77
2022/06/29 00:36:24;;;;;;;18.77;5.80;;;;;;;21.99;52.11;100555.00;123564;1098;104342;-76
2022/06/29 00:38:55;;;;;;;13.80;5.60;;;;;;;21.96;51.75;100558.58;123654;1098;104297;-76
2022/06/29 00:41:27;;;;;;;10.90;5.30;;;;;;;21.90;52.44;100556.84;123553;1098;104335;-76
2022/06/29 00:43:58;;;;;;;17.03;5.77;;;;;;;21.85;51.77;100561.36;123463;1099;104361;-76
2022/06/29 00:46:30;;;;;;;14.37;5.47;;;;;;;21.79;51.76;100555.20;123618;1099;104207;-76
2022/06/29 00:49:02;;;;;;;13.47;5.60;;;;;;;21.73;51.71;100553.47;123564;1099;104313;-77
2022/06/29 00:51:37;;;;;;;14.60;5.97;;;;;;;21.70;52.96;100564.17;123545;1099;104264;-77
2022/06/29 00:54:10;;;;;;;16.07;5.57;;;;;;;21.67;51.88;100556.19;123440;1099;104312;-77
2022/06/29 00:56:42;;;;;;;12.37;5.70;;;;;;;21.65;51.86;100566.02;123499;1099;104290;-77
2022/06/29 00:59:19;;;;;;;13.63;5.50;;;;;;;21.65;52.77;100558.87;123511;1099;104341;-76
2022/06/29 01:01:51;;;;;;;11.63;4.90;;;;;;;21.64;52.89;100567.77;123499;1099;104338;-76
2022/06/29 01:04:22;;;;;;;11.77;5.43;;;;;;;21.64;52.27;100559.77;123449;1099;104274;-76
2022/06/29 01:06:54;;;;;;;10.57;5.50;;;;;;;21.63;53.05;100562.45;123522;1099;104290;-76
2022/06/29 01:09:26;;;;;;;11.80;5.27;;;;;;;21.60;52.14;100550.03;123623;1099;104344;-77
2022/06/29 01:11:58;;;;;;;11.70;5.27;;;;;;;21.59;52.54;100555.38;123429;1099;104350;-76
2022/06/29 01:14:30;;;;;;;10.20;5.35;;;;;;;21.54;52.92;100561.64;123458;1099;104274;-76
2022/06/29 01:17:04;;;;;;;11.20;5.27;;;;;;;21.48;52.77;100564.33;123548;1099;104267;-76
2022/06/29 01:19:33;;;;;;;;;;;;;;;21.38;52.62;100567.98;123500;1099;104692;-77
2022/06/29 01:22:11;;;;;;;12.20;5.70;;;;;;;21.36;52.88;100572.42;123490;1099;104391;-76
2022/06/29 01:24:46;;;;;;;11.53;5.70;;;;;;;21.36;53.92;100570.66;123480;1099;104652;-76
2022/06/29 01:27:20;;;;;;;11.43;5.27;;;;;;;21.31;54.44;100574.25;123595;1099;104245;-76
2022/06/29 01:29:52;;;;;;;11.53;5.57;;;;;;;21.27;53.95;100573.40;123568;1098;104322;-76
2022/06/29 01:32:26;;;;;;;12.90;5.97;;;;;;;21.22;54.64;100577.86;123594;1099;104268;-76
2022/06/29 01:34:57;;;;;;;12.85;5.37;;;;;;;21.15;54.50;100574.36;123479;1099;104357;-76
2022/06/29 01:37:29;;;;;;;16.90;6.80;;;;;;;21.10;55.24;100578.84;123525;1099;104314;-76
2022/06/29 01:40:00;;;;;;;12.27;5.70;;;;;;;21.05;55.76;100572.66;123529;1099;104271;-76
2022/06/29 01:42:32;;;;;;;12.80;5.83;;;;;;;21.01;55.93;100584.23;123584;1099;104265;-76
2022/06/29 01:45:04;;;;;;;12.05;5.60;;;;;;;20.96;55.88;100581.59;123487;1099;104345;-76
2022/06/29 01:47:37;;;;;;;10.50;5.50;;;;;;;20.96;56.35;100581.59;123538;1099;104399;-76
2022/06/29 01:50:10;;;;;;;12.03;5.60;;;;;;;20.94;56.30;100577.16;123583;1098;104350;-76
2022/06/29 01:52:41;;;;;;;11.95;5.60;;;;;;;20.92;56.14;100573.63;123568;1099;104360;-76
2022/06/29 01:55:13;;;;;;;12.67;5.80;;;;;;;20.91;56.00;100577.17;123554;1099;104379;-77
2022/06/29 01:57:45;;;;;;;11.53;5.40;;;;;;;20.91;56.58;100578.08;123527;1099;104367;-77
2022/06/29 02:00:18;;;;;;;10.27;5.47;;;;;;;20.89;56.46;100570.97;123571;1099;104478;-76
2022/06/29 02:02:50;;;;;;;9.58;5.25;;;;;;;20.86;56.26;100579.86;123661;1099;104249;-77
2022/06/29 02:05:21;;;;;;;11.20;4.93;;;;;;;20.86;56.22;100582.53;123661;1099;104351;-76
2022/06/29 02:07:53;;;;;;;10.80;5.50;;;;;;;20.85;55.88;100580.78;123529;1099;104658;-77
2022/06/29 02:10:26;;;;;;;15.10;5.50;;;;;;;20.86;56.53;100584.32;123516;1099;104248;-77
2022/06/29 02:12:57;;;;;;;11.07;5.83;;;;;;;20.83;55.62;100586.12;123496;1099;104379;-77
2022/06/29 02:15:29;;;;;;;13.63;5.40;;;;;;;20.85;56.90;100585.20;123477;1099;104268;-77
2022/06/29 02:18:01;;;;;;;10.83;5.13;;;;;;;20.81;56.75;100571.89;123600;1099;104727;-78
2022/06/29 02:20:32;;;;;;;12.13;5.30;;;;;;;20.82;56.18;100575.46;123572;1099;104293;-77
2022/06/29 02:23:04;;;;;;;15.23;5.57;;;;;;;20.80;56.13;100572.80;123511;1099;104241;-76
2022/06/29 02:25:36;;;;;;;14.43;5.87;;;;;;;20.78;57.17;100571.90;123454;1099;104342;-77
2022/06/29 02:28:07;;;;;;;12.37;5.33;;;;;;;20.76;56.43;100568.37;123509;1099;104361;-78
2022/06/29 02:36:23;;;;;;;15.37;5.87;;;;;;;20.71;57.16;100563.94;123250;1102;104328;-75
2022/06/29 02:38:55;;;;;;;15.53;5.50;;;;;;;20.69;57.00;100560.41;123530;1099;104405;-76
2022/06/29 02:41:26;;;;;;;12.93;6.07;;;;;;;20.70;57.39;100554.19;123594;1099;104240;-75
2022/06/29 02:44:00;;;;;;;11.57;5.37;;;;;;;20.69;57.79;100549.74;123503;1099;104250;-76
2022/06/29 02:46:33;;;;;;;12.97;5.37;;;;;;;20.65;57.74;100562.21;123470;1099;104268;-76
2022/06/29 02:49:04;;;;;;;15.50;5.90;;;;;;;20.61;57.23;100560.41;123518;1099;104416;-76
2022/06/29 02:51:36;;;;;;;11.17;5.10;;;;;;;20.58;57.23;100557.75;123497;1099;104271;-76
2022/06/29 02:54:08;;;;;;;12.57;5.80;;;;;;;20.55;57.35;100558.64;123164;1099;104453;-76
2022/06/29 02:56:40;;;;;;;14.50;5.60;;;;;;;20.55;57.76;100555.98;123457;1099;104453;-76
2022/06/29 02:59:11;;;;;;;13.67;5.57;;;;;;;20.56;57.60;100554.22;123302;1099;104440;-76
2022/06/29 03:01:43;;;;;;;12.67;5.10;;;;;;;20.58;58.23;100558.63;123351;1099;104466;-76
2022/06/29 03:04:14;;;;;;;12.93;5.87;;;;;;;20.59;58.40;100554.20;123518;1099;104587;-77
2022/06/29 03:06:46;;;;;;;13.30;5.47;;;;;;;20.62;58.45;100554.19;123422;1099;104348;-76
2022/06/29 03:09:18;;;;;;;13.80;5.60;;;;;;;20.63;58.06;100555.94;123312;1099;104575;-76
2022/06/29 03:11:49;;;;;;;18.30;5.30;;;;;;;20.65;58.54;100549.75;123482;1099;104457;-75
2022/06/29 03:14:21;;;;;;;9.63;5.43;;;;;;;20.68;57.91;100548.87;123388;1099;104453;-76
2022/06/29 03:16:53;;;;;;;11.63;5.27;;;;;;;20.71;57.92;100542.61;123471;1099;104377;-77
2022/06/29 03:19:24;;;;;;;11.97;5.33;;;;;;;20.74;58.59;100540.84;123432;1099;104341;-77
2022/06/29 03:21:56;;;;;;;12.50;5.33;;;;;;;20.78;57.51;100536.36;123346;1099;104364;-75
2022/06/29 03:24:27;;;;;;;13.67;5.90;;;;;;;20.81;58.16;100534.55;123349;1101;104450;-76
2022/06/29 03:26:59;;;;;;;9.80;5.37;;;;;;;20.86;58.44;100531.86;123379;1099;104313;-76
2022/06/29 03:29:30;;;;;;;14.97;5.60;;;;;;;20.89;58.25;100534.50;123297;1099;104565;-76
2022/06/29 03:32:02;;;;;;;11.33;5.80;;;;;;;20.93;58.07;100532.73;123415;1099;104252;-76
2022/06/29 03:34:33;;;;;;;12.60;5.70;;;;;;;20.94;58.64;100532.72;123643;1099;104277;-76
2022/06/29 03:37:06;;;;;;;11.20;5.10;;;;;;;20.98;58.61;100538.91;123690;1099;104395;-76
2022/06/29 03:39:38;;;;;;;12.63;5.53;;;;;;;21.03;58.07;100539.75;123708;1099;104402;-76
2022/06/29 03:42:09;;;;;;;12.90;5.10;;;;;;;21.06;58.09;100529.06;123669;1099;104380;-77
2022/06/29 03:44:44;;;;;;;11.03;5.50;;;;;;;21.12;58.69;100522.81;123786;1099;104277;-77
2022/06/29 03:47:22;;;;;;;11.60;5.40;;;;;;;21.16;58.21;100530.78;123884;1098;104267;-78
2022/06/29 03:49:55;;;;;;;12.95;5.45;;;;;;;21.21;57.77;100529.84;123801;1099;104274;-77
2022/06/29 03:52:27;;;;;;;11.60;5.60;;;;;;;21.28;58.18;100531.58;123637;1099;104217;-77
2022/06/29 03:54:58;;;;;;;16.83;5.40;;;;;;;21.35;58.72;100527.97;123657;1099;104288;-77
2022/06/29 03:57:30;;;;;;;10.77;5.20;;;;;;;21.42;58.78;100531.47;123612;1099;104342;-76
2022/06/29 04:00:02;;;;;;;14.10;5.53;;;;;;;21.46;58.32;100522.55;123529;1099;104213;-77
2022/06/29 04:02:43;;;;;;;11.63;5.60;;;;;;;21.52;57.38;100530.53;123651;1099;104341;-77
2022/06/29 04:05:15;;;;;;;12.27;6.20;;;;;;;21.60;58.28;100542.02;123512;1099;104397;-77
2022/06/29 04:07:47;;;;;;;13.27;5.80;;;;;;;21.65;57.95;100528.63;123432;1099;105727;-79
2022/06/29 04:10:21;;;;;;;13.40;5.67;;;;;;;21.73;57.77;100537.44;123594;1099;104316;-78
2022/06/29 04:12:53;;;;;;;12.18;5.97;;;;;;;21.78;57.57;100530.27;123426;1099;104257;-78
2022/06/29 04:15:25;;;;;;;13.00;5.80;;;;;;;21.83;57.43;100523.11;123569;1099;104255;-78
2022/06/29 04:17:57;;;;;;;10.70;5.23;;;;;;;21.93;58.35;100536.37;123587;1099;104308;-79
2022/06/29 04:23:18;;;;;;;10.50;5.23;;;;;;;22.05;58.19;100536.23;123496;1099;104223;-78
2022/06/29 04:25:50;;;;;;;9.27;5.30;;;;;;;22.10;57.53;100552.22;123867;1099;104239;-80
2022/06/29 04:28:22;;;;;;;13.53;5.40;;;;;;;22.15;57.92;100542.36;123653;1099;104222;-78
2022/06/29 04:30:53;;;;;;;14.05;5.75;;;;;;;22.21;57.68;100539.61;123726;1098;104278;-78
2022/06/29 04:33:26;;;;;;;10.50;5.37;;;;;;;22.27;57.75;100544.89;123737;1099;104496;-79
2022/06/29 04:35:57;;;;;;;13.33;5.20;;;;;;;22.36;57.78;100551.92;123999;1099;104239;-81
2022/06/29 04:38:29;;;;;;;13.25;5.50;;;;;;;22.44;57.33;100542.92;123951;1099;104321;-80
2022/06/29 04:41:02;;;;;;;14.05;5.55;;;;;;;22.51;57.56;100550.87;123977;1099;104726;-78
2022/06/29 04:43:35;;;;;;;13.63;5.13;;;;;;;22.58;56.78;100545.42;123445;1099;104229;-78
2022/06/29 04:46:22;;;;;;;12.67;5.67;;;;;;;22.65;57.14;100543.54;123647;1099;104319;-78
2022/06/29 04:48:56;;;;;;;13.40;5.80;;;;;;;22.72;57.37;100547.01;123930;1099;104232;-78
2022/06/29 04:51:29;;;;;;;17.35;5.55;;;;;;;22.79;56.73;100546.03;123977;1099;104239;-80
2022/06/29 04:54:01;;;;;;;15.05;5.08;;;;;;;22.88;56.70;100551.25;124060;1099;104242;-79
2022/06/29 04:56:35;;;;;;;17.70;6.07;;;;;;;23.00;56.60;100546.62;123993;1099;104313;-79
2022/06/29 04:59:08;;;;;;;17.70;5.83;;;;;;;23.07;56.48;100554.53;123853;1098;104261;-78
2022/06/29 05:01:41;;;;;;;13.00;6.00;;;;;;;23.13;56.86;100557.16;123999;1099;104371;-78
2022/06/29 05:04:14;;;;;;;15.00;5.90;;;;;;;23.20;56.25;100549.91;124045;1099;104856;-78
2022/06/29 05:06:45;;;;;;;;;;;;;;;23.29;56.38;100549.76;124188;1099;104370;-78
2022/06/29 05:09:17;;;;;;;13.53;6.17;;;;;;;23.38;56.46;100550.54;123978;1099;104217;-79
2022/06/29 05:11:50;;;;;;;14.40;5.87;;;;;;;23.49;55.95;100556.59;123863;1099;104237;-77
2022/06/29 05:14:21;;;;;;;15.97;5.87;;;;;;;23.60;55.98;100548.38;124411;1098;104249;-79
2022/06/29 05:16:54;;;;;;;13.60;6.20;;;;;;;23.71;55.94;100534.80;124246;1099;104235;-80
2022/06/29 05:19:26;;;;;;;14.20;6.45;;;;;;;23.84;56.25;100547.07;124480;1099;104219;-79
2022/06/29 05:22:02;;;;;;;15.87;6.37;;;;;;;23.94;56.05;100548.68;124288;1099;104294;-79
2022/06/29 05:24:38;;;;;;;17.73;6.47;;;;;;;24.04;55.48;100547.61;124338;1099;102173;-79
2022/06/29 05:27:12;;;;;;;15.07;6.40;;;;;;;24.15;55.69;100552.77;124207;1099;104176;-79
2022/06/29 05:29:44;;;;;;;13.60;6.20;;;;;;;24.26;55.63;100547.16;124768;1099;104293;-80
2022/06/29 05:32:20;;;;;;;19.70;6.20;;;;;;;24.37;55.42;100545.16;124653;1099;104195;-78
2022/06/29 05:34:55;;;;;;;15.13;6.27;;;;;;;24.48;55.25;100546.72;124466;1099;104261;-79
2022/06/29 05:37:27;;;;;;;14.37;6.33;;;;;;;24.58;55.21;100548.33;124754;1099;104310;-81
2022/06/29 05:40:00;;;;;;;16.57;6.23;;;;;;;24.68;55.37;100539.19;124674;1099;104191;-80
2022/06/29 05:42:34;;;;;;;17.27;6.33;;;;;;;24.79;55.02;100532.67;124375;1099;104215;-78
2022/06/29 05:45:11;;;;;;;16.33;6.17;;;;;;;24.87;54.97;100530.69;124105;1102;104389;-80
2022/06/29 05:47:45;;;;;;;14.70;6.03;;;;;;;25.00;54.73;100532.19;124769;1102;104373;-79
2022/06/29 05:50:16;;;;;;;19.90;6.63;;;;;;;25.08;55.08;100527.50;124096;1100;107913;-78
2022/06/29 05:52:54;;;;;;;15.33;6.70;;;;;;;25.19;55.09;100532.62;124245;1100;104348;-82
2022/06/29 05:55:37;;;;;;;18.30;7.00;;;;;;;25.32;54.34;100535.04;125142;1102;104254;-82
2022/06/29 05:58:11;;;;;;;20.83;6.97;;;;;;;25.43;54.75;100533.86;124527;1099;104436;-78
2022/06/29 06:00:56;;;;;;;16.45;6.10;;;;;;;25.57;54.41;100543.35;124340;1102;119843;-80
2022/06/29 06:03:32;;;;;;;15.63;6.67;;;;;;;25.69;54.08;100537.66;124189;1102;104213;-79
2022/06/29 06:06:13;;;;;;;13.83;5.97;;;;;;;25.79;54.18;100533.82;125112;1102;103135;-79
2022/06/29 06:09:02;;;;;;;16.63;6.53;;;;;;;25.91;54.17;100532.59;124520;1102;104271;-81
2022/06/29 06:11:42;;;;;;;17.43;7.23;;;;;;;26.06;54.20;100531.33;124424;1100;104201;-78
2022/06/29 06:14:25;;;;;;;18.53;7.10;;;;;;;26.22;53.49;100533.58;124498;1102;104185;-78
2022/06/29 06:17:04;;;;;;;13.90;6.87;;;;;;;26.36;53.61;100523.30;124709;1098;104238;-79
2022/06/29 06:19:51;;;;;;;15.97;7.33;;;;;;;26.54;53.64;100522.75;124760;1099;104299;-80
2022/06/29 06:22:36;;;;;;;;;;;;;;;;;;;;;
2022/06/29 06:25:23;;;;;;;14.77;6.83;;;;;;;26.85;53.57;100518.28;125368;1102;104270;-80
2022/06/29 06:30:59;;;;;;;21.20;6.75;;;;;;;27.16;52.95;100512.78;125359;1102;104236;-84
2022/06/29 06:34:14;;;;;;;15.43;7.00;;;;;;;27.31;52.47;100507.81;125294;1102;104179;-79
2022/06/29 06:36:59;;;;;;;20.17;7.27;;;;;;;27.46;52.05;100499.24;125137;1102;104685;-80
2022/06/29 06:41:21;;;;;;;18.87;7.17;;;;;;;27.60;51.49;100499.63;124155;1099;104195;-78
2022/06/29 06:46:02;;;;;;;14.47;6.47;;;;;;;27.94;50.89;100478.66;125279;1102;104175;-79
2022/06/29 06:48:38;;;;;;;18.90;7.20;;;;;;;28.09;50.81;100474.55;125283;1102;104291;-80
2022/06/29 06:51:27;;;;;;;12.83;6.40;;;;;;;28.23;50.80;100471.34;124265;1102;104350;-78
2022/06/29 06:54:04;;;;;;;13.60;6.65;;;;;;;28.37;50.45;100476.20;124292;1099;104342;-76
2022/06/29 06:56:53;;;;;;;11.65;6.58;;;;;;;28.52;50.24;100467.52;125467;1099;104185;-79
2022/06/29 06:59:53;;;;;;;13.53;6.80;;;;;;;28.67;50.27;100466.04;126268;1099;102596;-79
2022/06/29 07:02:36;;;;;;;15.10;6.37;;;;;;;28.88;49.58;100458.91;125619;1099;104213;-81
2022/06/29 07:05:11;;;;;;;13.63;6.20;;;;;;;29.02;49.24;100467.30;124901;1099;104176;-80
2022/06/29 07:07:53;;;;;;;14.50;6.27;;;;;;;29.16;49.03;100453.22;124899;1099;104176;-80
2022/06/29 07:10:42;;;;;;;16.53;7.20;;;;;;;29.29;48.88;100442.79;124770;1099;103138;-78
2022/06/29 07:13:19;;;;;;;15.03;6.73;;;;;;;29.50;48.75;100448.20;125191;1099;104233;-78
2022/06/29 07:15:52;;;;;;;12.27;6.97;;;;;;;29.62;48.75;100444.95;125044;1099;104236;-82
2022/06/29 07:18:32;;;;;;;13.50;5.90;;;;;;;29.88;46.61;100443.81;126239;1099;102994;-81
2022/06/29 07:21:33;;;;;;;10.83;5.97;;;;;;;30.13;46.63;100449.94;126035;1099;102391;-82
2022/06/29 07:24:15;;;;;;;9.70;5.70;;;;;;;30.25;46.31;100450.23;125431;1099;104197;-82
2022/06/29 07:26:56;;;;;;;8.40;6.00;;;;;;;30.36;46.35;100446.15;124969;1099;104079;-81
2022/06/29 07:29:52;;;;;;;15.45;6.20;;;;;;;30.68;45.03;100441.89;124771;1099;104169;-82
2022/06/29 07:32:33;;;;;;;13.10;6.40;;;;;;;30.87;45.49;100449.11;124711;1099;104235;-81
2022/06/29 07:35:33;;;;;;;9.87;5.90;;;;;;;30.92;44.71;100437.09;124432;1099;102897;-83
2022/06/29 07:41:25;;;;;;;13.13;6.30;;;;;;;31.09;44.54;100436.28;126140;1102;102447;-81
2022/06/29 07:44:12;;;;;;;11.40;5.93;;;;;;;31.24;44.14;100436.44;126172;1102;102784;-81
2022/06/29 07:47:17;;;;;;;;;;;;;;;;;;;;;
2022/06/29 07:50:04;;;;;;;11.13;6.03;;;;;;;31.87;41.83;100444.00;125215;1105;104482;-80
2022/06/29 07:52:44;;;;;;;11.93;6.60;;;;;;;32.12;41.72;100445.42;124045;1105;104217;-81
2022/06/29 07:55:32;;;;;;;9.70;5.77;;;;;;;32.26;41.45;100442.80;124013;1105;104402;-81
2022/06/29 07:58:28;;;;;;;13.23;6.03;;;;;;;32.52;40.58;100446.77;125235;1105;104261;-80
2022/06/29 08:01:07;;;;;;;10.77;6.47;;;;;;;32.75;40.20;100444.58;124925;1105;102973;-81
2022/06/29 08:03:44;;;;;;;11.57;6.43;;;;;;;32.92;40.51;100449.03;124875;1105;104487;-79
2022/06/29 08:06:38;;;;;;;;;;;;;;;;;;;;;
2022/06/29 08:09:20;;;;;;;10.55;6.20;;;;;;;33.18;39.49;100447.53;124610;1102;104405;-82
2022/06/29 08:12:35;;;;;;;10.00;6.17;;;;;;;33.21;39.34;100449.16;124219;1102;104226;-80
2022/06/29 08:15:32;;;;;;;12.07;6.90;;;;;;;33.50;38.66;100450.13;125142;1102;102539;-80
2022/06/29 08:21:51;;;;;;;;;;;;;;;;;;;;;
2022/06/29 08:24:29;;;;;;;9.03;6.20;;;;;;;33.70;37.40;100439.88;124947;1106;102648;-81
2022/06/29 08:27:21;;;;;;;9.50;5.80;;;;;;;33.77;37.28;100446.70;125224;1105;102913;-80
2022/06/29 08:30:24;;;;;;;11.10;6.90;;;;;;;33.81;36.47;100450.98;124310;1105;102990;-80
2022/06/29 08:36:47;;;;;;;11.75;6.20;;;;;;;33.86;36.58;100454.28;123822;1105;104238;-79
2022/06/29 08:39:51;;;;;;;10.23;6.50;;;;;;;33.88;36.78;100455.09;124047;1105;103939;-83
2022/06/29 08:43:00;;;;;;;13.23;6.53;;;;;;;33.92;36.68;100442.16;124902;1104;104398;-82
2022/06/29 08:46:14;;;;;;;12.60;6.95;;;;;;;34.04;36.34;100447.69;123964;1105;104166;-80
2022/06/29 08:49:16;;;;;;;12.67;6.70;;;;;;;34.11;36.62;100439.12;125025;1106;102407;-81
2022/06/29 08:52:19;;;;;;;8.97;6.07;;;;;;;34.15;36.09;100447.00;123997;1106;104151;-82
2022/06/29 08:55:59;;;;;;;;;;;;;;;;;;;;;
2022/06/29 08:58:45;;;;;;;10.63;6.40;;;;;;;34.04;35.98;100439.52;125713;1105;103055;-81
2022/06/29 09:01:47;;;;;;;10.93;5.97;;;;;;;34.03;35.29;100445.06;125086;1105;102401;-81
2022/06/29 09:04:36;;;;;;;12.03;6.90;;;;;;;33.85;35.64;100444.39;124151;1105;104172;-80
2022/06/29 09:07:11;;;;;;;;;;;;;;;33.88;35.82;100437.86;124038;1106;103438;-83
2022/06/29 09:10:37;;;;;;;8.87;6.10;;;;;;;34.01;35.56;100439.71;124921;1105;104387;-83
2022/06/29 09:13:50;;;;;;;12.07;6.73;;;;;;;33.98;35.48;100434.46;124258;1105;104635;-82
2022/06/29 09:16:55;;;;;;;13.05;6.30;;;;;;;34.06;35.46;100433.11;124620;1102;104357;-83
2022/06/29 09:19:48;;;;;;;14.67;7.10;;;;;;;33.98;35.33;100437.19;124481;1102;101939;-82
2022/06/29 09:22:26;;;;;;;11.23;6.50;;;;;;;33.93;34.46;100431.17;124752;1102;104366;-78
2022/06/29 09:25:07;;;;;;;;;;;;;;;34.07;34.84;100432.15;125251;1099;104241;-81
2022/06/29 09:31:47;;;;;;;11.17;6.60;;;;;;;34.53;34.97;100429.17;125319;1102;111781;-84
2022/06/29 09:34:39;;;;;;;10.13;6.70;;;;;;;34.65;35.46;100422.91;124924;1102;102669;-83
2022/06/29 09:37:26;;;;;;;8.53;6.40;;;;;;;34.67;34.69;100423.70;125194;1102;104303;-82
2022/06/29 09:39:58;;;;;;;11.50;6.43;;;;;;;34.78;33.99;100425.72;125319;1102;104344;-82
2022/06/29 09:42:40;;;;;;;9.67;6.70;;;;;;;34.68;33.15;100417.26;124254;1105;102908;-83
2022/06/29 09:45:41;;;;;;;;;;;;;;;;;;;;;
2022/06/29 09:48:42;;;;;;;9.03;6.63;;;;;;;34.81;33.58;100419.20;125057;1104;103105;-85
2022/06/29 09:51:38;;;;;;;10.03;7.00;;;;;;;34.79;33.98;100411.13;125100;1102;105319;-83
2022/06/29 09:54:34;;;;;;;;;;;;;;;;;;;;;
2022/06/29 09:57:56;;;;;;;12.67;6.87;;;;;;;34.87;33.69;100416.06;125143;1102;102986;-82
2022/06/29 10:04:10;;;;;;;10.00;6.85;;;;;;;34.53;33.07;100399.20;124318;1102;104390;-80
2022/06/29 10:06:59;;;;;;;8.57;6.20;;;;;;;34.51;33.57;100402.03;125085;1102;103841;-80
2022/06/29 10:09:49;;;;;;;10.53;6.97;;;;;;;34.56;32.46;100407.17;125345;1102;104229;-82
2022/06/29 10:19:39;;;;;;;9.77;6.97;;;;;;;34.59;31.85;100398.80;125058;1099;104178;-81
2022/06/29 10:22:32;;;;;;;10.07;6.80;;;;;;;34.70;31.41;100396.25;126153;1099;102636;-76
2022/06/29 10:25:13;;;;;;;11.73;7.33;;;;;;;34.71;31.90;100395.25;126108;1099;103003;-78
2022/06/29 10:28:16;;;;;;;10.73;7.20;;;;;;;34.73;31.95;100393.32;124986;1099;102595;-81
2022/06/29 10:31:19;;;;;;;8.47;6.90;;;;;;;34.69;31.65;100401.80;125005;1099;104172;-83
2022/06/29 10:34:02;;;;;;;9.53;6.85;;;;;;;34.67;31.49;100388.28;124848;1099;102529;-80
2022/06/29 10:37:00;;;;;;;10.37;7.00;;;;;;;34.76;32.09;100383.22;124760;1099;102115;-81
2022/06/29 10:40:04;;;;;;;8.67;6.73;;;;;;;34.85;31.55;100372.55;125238;1099;104069;-82
2022/06/29 10:45:44;;;;;;;9.37;6.67;;;;;;;34.98;31.61;100374.44;124590;1099;104408;-81
2022/06/29 10:48:26;;;;;;;11.30;7.00;;;;;;;35.04;31.65;100379.47;124547;1099;103771;-82
2022/06/29 10:51:01;;;;;;;11.57;7.28;;;;;;;35.05;31.81;100378.50;124576;1102;104168;-82
2022/06/29 10:53:40;;;;;;;11.60;7.40;;;;;;;35.10;31.91;100381.77;126093;1102;101715;-83
2022/06/29 10:56:30;;;;;;;10.00;6.83;;;;;;;35.11;31.36;100383.53;124826;1099;104230;-81
2022/06/29 10:59:32;;;;;;;9.87;7.00;;;;;;;34.92;31.96;100382.07;124619;1102;103457;-83
2022/06/29 11:05:12;;;;;;;13.83;7.47;;;;;;;34.58;32.32;100388.90;124626;1102;119381;-80
2022/06/29 11:13:57;;;;;;;10.83;7.43;;;;;;;34.95;32.21;100385.55;124450;1101;102433;-87
2022/06/29 11:19:53;;;;;;;11.40;7.67;;;;;;;35.08;30.35;100387.34;126247;1099;104272;-83
2022/06/29 11:22:53;;;;;;;15.10;7.77;;;;;;;35.08;30.17;100387.34;124829;1099;104300;-82
2022/06/29 11:25:42;;;;;;;10.63;7.67;;;;;;;35.17;30.59;100383.11;125322;1102;104466;-82
2022/06/29 11:28:25;;;;;;;11.93;7.70;;;;;;;35.14;30.57;100388.77;124226;1102;104201;-83
2022/06/29 11:31:18;;;;;;;9.27;7.00;;;;;;;35.24;30.81;100378.95;124522;1102;104428;-82
2022/06/29 11:34:09;;;;;;;12.33;7.50;;;;;;;35.23;30.66;100384.52;124964;1102;104217;-81
2022/06/29 11:36:53;;;;;;;12.37;7.30;;;;;;;35.15;30.73;100374.14;125114;1102;103134;-85
2022/06/29 11:39:41;;;;;;;10.70;7.10;;;;;;;35.28;30.77;100382.39;124085;1102;104568;-85
2022/06/29 11:45:25;;;;;;;9.53;7.13;;;;;;;35.15;29.67;100370.55;124818;1102;103810;-82
2022/06/29 11:48:14;;;;;;;11.23;7.20;;;;;;;35.15;30.09;100367.83;124517;1102;104281;-82
2022/06/29 11:51:19;;;;;;;10.15;7.55;;;;;;;35.16;30.58;100351.36;124436;1102;103098;-83
2022/06/29 11:57:26;;;;;;;11.87;7.60;;;;;;;35.21;30.46;100353.77;125027;1102;104421;-84
2022/06/29 12:00:19;;;;;;;10.60;7.33;;;;;;;35.16;30.52;100358.67;124239;1102;104185;-83
2022/06/29 12:03:42;;;;;;;11.70;8.00;;;;;;;35.01;29.23;100363.33;124369;1102;104376;-84
2022/06/29 12:06:48;;;;;;;10.77;7.40;;;;;;;34.98;30.20;100355.36;124958;1102;109809;-83
2022/06/29 12:09:47;;;;;;;10.30;7.23;;;;;;;35.13;30.04;100335.21;124944;1102;104319;-83
2022/06/29 12:12:21;;;;;;;11.77;7.00;;;;;;;35.36;30.19;100332.73;125020;1102;104237;-83
2022/06/29 12:15:16;;;;;;;11.13;7.57;;;;;;;35.53;30.09;100326.07;125042;1102;103942;-82
2022/06/29 12:17:54;;;;;;;11.30;7.37;;;;;;;35.63;30.12;100332.63;125051;1102;104248;-81
2022/06/29 12:20:30;;;;;;;11.43;7.93;;;;;;;35.55;29.81;100324.98;125067;1101;102809;-81
2022/06/29 12:23:05;;;;;;;11.53;7.80;;;;;;;35.54;29.69;100334.14;124334;1102;104487;-79
2022/06/29 12:25:43;;;;;;;13.03;7.70;;;;;;;35.55;29.53;100329.58;124370;1102;104402;-80
2022/06/29 12:28:26;;;;;;;10.47;7.60;;;;;;;35.56;29.61;100323.12;124573;1102;103025;-81
2022/06/29 12:31:08;;;;;;;11.43;7.57;;;;;;;35.63;29.78;100316.25;125282;1102;104245;-80
2022/06/29 12:33:58;;;;;;;12.93;7.53;;;;;;;35.73;29.50;100305.53;125339;1101;104399;-82
2022/06/29 12:36:42;;;;;;;10.63;7.60;;;;;;;35.84;29.49;100307.50;125186;1102;104182;-82
2022/06/29 12:39:27;;;;;;;10.90;7.33;;;;;;;35.87;29.23;100305.41;125497;1098;104159;-81
2022/06/29 12:42:10;;;;;;;10.50;7.60;;;;;;;35.81;29.38;100304.03;125623;1099;104239;-83
2022/06/29 12:45:05;;;;;;;10.43;7.20;;;;;;;35.77;29.16;100291.58;125407;1099;104152;-81
2022/06/29 12:48:03;;;;;;;10.70;7.77;;;;;;;35.78;29.28;100295.20;125957;1099;106995;-83
2022/06/29 12:50:57;;;;;;;9.93;7.40;;;;;;;35.83;29.42;100294.83;126054;1099;104232;-84
2022/06/29 12:53:45;;;;;;;17.93;7.97;;;;;;;35.77;29.40;100291.58;125982;1098;104171;-86
2022/06/29 12:56:44;;;;;;;13.00;7.93;;;;;;;35.70;29.10;100289.38;125142;1099;103363;-85
2022/06/29 12:59:31;;;;;;;11.73;7.73;;;;;;;35.67;29.18;100295.06;125389;1099;104293;-84
2022/06/29 13:02:38;;;;;;;11.40;7.60;;;;;;;35.61;28.67;100280.03;125558;1098;102723;-85
2022/06/29 13:05:21;;;;;;;10.13;7.13;;;;;;;35.53;28.84;100272.40;125308;1099;103368;-81
2022/06/29 13:08:04;;;;;;;12.10;7.90;;;;;;;35.49;28.91;100272.73;125607;1099;112554;-83
2022/06/29 13:11:03;;;;;;;12.40;7.77;;;;;;;35.50;28.90;100269.00;125128;1099;102403;-82
2022/06/29 13:13:45;;;;;;;10.00;7.83;;;;;;;35.54;28.88;100273.27;125219;1099;102942;-82
2022/06/29 13:16:48;;;;;;;11.13;7.20;;;;;;;35.38;28.31;100263.46;125242;1099;103736;-82